Time;durP1;ratioP1;P1;durP2;ratioP2;P2;SDS_P1;SDS_P2;PMS_P1;PMS_P2;Temp;Humidity;BMP_temperature;BMP_pressure;BME280_temperature;BME280_humidity;BME280_pressure;Samples;Min_cycle;Max_cycle;Signal;HPM_P1;HPM_P2
2022/06/27 00:00:13;;;;;;;9.90;9.07;;;;;;;24.12;54.61;100689.75;7395219;19;20014;-67
2022/06/27 00:02:42;;;;;;;10.02;9.15;;;;;;;24.07;54.46;100676.75;7400254;19;20014;-67
2022/06/27 00:05:12;;;;;;;9.40;8.63;;;;;;;24.04;54.41;100684.16;7400639;19;20019;-67
2022/06/27 00:07:41;;;;;;;10.63;9.52;;;;;;;23.99;54.69;100678.31;7399455;19;20033;-67
2022/06/27 00:10:11;;;;;;;9.45;8.65;;;;;;;23.95;54.84;100679.53;7400636;19;20014;-67
2022/06/27 00:12:43;;;;;;;9.38;8.65;;;;;;;23.89;54.92;100687.03;7398374;19;20023;-67
2022/06/27 00:15:13;;;;;;;9.73;8.95;;;;;;;23.85;54.83;100685.59;7400215;19;20037;-67
2022/06/27 00:17:42;;;;;;;9.75;8.95;;;;;;;23.82;55.39;100680.47;7400637;19;20036;-67
2022/06/27 00:20:12;;;;;;;9.38;8.68;;;;;;;23.77;55.37;100680.00;7397952;19;20018;-67
2022/06/27 00:22:41;;;;;;;10.07;9.18;;;;;;;23.73;55.74;100676.69;7400237;19;20031;-67
2022/06/27 00:25:12;;;;;;;10.18;9.38;;;;;;;23.70;55.72;100673.41;7400388;19;20014;-67
2022/06/27 00:27:43;;;;;;;10.02;9.23;;;;;;;23.67;55.74;100679.84;7400126;19;20391;-67
2022/06/27 00:30:13;;;;;;;9.48;8.68;;;;;;;23.63;55.92;100678.38;7399839;19;20018;-67
2022/06/27 00:32:42;;;;;;;9.88;8.93;;;;;;;23.61;55.65;100683.00;7398098;19;20031;-67
2022/06/27 00:35:12;;;;;;;9.43;8.57;;;;;;;23.58;56.24;100689.47;7400248;19;20019;-67
2022/06/27 00:37:40;;;;;;;9.68;8.88;;;;;;;23.55;55.94;100684.31;7397623;19;20022;-67
2022/06/27 00:40:10;;;;;;;9.60;8.80;;;;;;;23.51;56.33;100679.34;7397520;19;20074;-67
2022/06/27 00:42:39;;;;;;;10.70;9.80;;;;;;;23.45;56.33;100687.84;7399535;19;20477;-67
2022/06/27 00:45:12;;;;;;;9.32;8.52;;;;;;;23.42;56.69;100686.25;7399306;19;20339;-67
2022/06/27 00:47:40;;;;;;;8.85;8.18;;;;;;;23.40;56.34;100683.72;7400563;19;20019;-67
2022/06/27 00:50:10;;;;;;;10.35;9.52;;;;;;;23.38;56.83;100684.78;7396813;19;20067;-67
2022/06/27 00:52:40;;;;;;;9.88;9.15;;;;;;;23.35;56.78;100685.03;7398836;19;20473;-67
2022/06/27 00:55:10;;;;;;;9.57;8.73;;;;;;;23.30;56.92;100684.53;7399395;19;20090;-67
2022/06/27 00:57:39;;;;;;;10.05;9.20;;;;;;;23.24;57.21;100689.38;7397587;19;20022;-67
2022/06/27 01:00:11;;;;;;;10.00;9.13;;;;;;;23.21;56.87;100697.63;7399287;19;20422;-67
2022/06/27 01:02:40;;;;;;;10.23;9.50;;;;;;;23.19;57.46;100696.91;7399431;19;20019;-67
2022/06/27 01:05:10;;;;;;;10.20;9.40;;;;;;;23.18;57.29;100695.19;7399011;19;20486;-67
2022/06/27 01:07:40;;;;;;;9.65;8.85;;;;;;;23.18;57.11;100703.22;7397920;19;20481;-67
2022/06/27 01:10:10;;;;;;;9.93;8.88;;;;;;;23.18;57.48;100702.38;7399022;19;20048;-67
2022/06/27 01:12:42;;;;;;;10.93;9.93;;;;;;;23.16;57.41;100705.16;7396177;19;20359;-67
2022/06/27 01:15:14;;;;;;;10.03;9.20;;;;;;;23.14;57.77;100699.03;7398836;19;20366;-67
2022/06/27 01:17:43;;;;;;;10.52;9.73;;;;;;;23.12;57.71;100695.63;7398345;19;20360;-67
2022/06/27 01:20:13;;;;;;;11.02;10.13;;;;;;;23.08;57.69;100695.00;7398490;19;20039;-67
2022/06/27 01:22:44;;;;;;;10.27;9.57;;;;;;;23.04;57.47;100692.69;7396684;19;20026;-67
2022/06/27 01:25:16;;;;;;;10.40;9.50;;;;;;;23.00;57.83;100694.75;7398829;19;20031;-67
2022/06/27 01:27:47;;;;;;;10.38;9.57;;;;;;;22.97;58.18;100699.47;7398017;19;20021;-67
2022/06/27 01:30:16;;;;;;;10.32;9.45;;;;;;;22.94;58.30;100703.22;7398411;19;20033;-67
2022/06/27 01:32:45;;;;;;;10.73;9.80;;;;;;;22.89;58.11;100702.72;7395961;19;20018;-67
2022/06/27 01:35:13;;;;;;;10.38;9.48;;;;;;;22.86;58.40;100701.13;7398010;19;20021;-67
2022/06/27 01:37:45;;;;;;;10.60;9.57;;;;;;;22.83;58.32;100701.34;7397946;19;20035;-67
2022/06/27 01:40:13;;;;;;;10.88;9.88;;;;;;;22.80;58.10;100706.03;7398287;19;20018;-67
2022/06/27 01:42:42;;;;;;;10.38;9.57;;;;;;;22.77;58.55;100704.44;7395786;19;20031;-67
2022/06/27 01:45:12;;;;;;;10.35;9.45;;;;;;;22.75;58.31;100703.75;7397278;19;20035;-67
2022/06/27 01:47:40;;;;;;;10.60;9.70;;;;;;;22.74;58.46;100708.22;7395789;19;20022;-67
2022/06/27 01:50:12;;;;;;;10.93;10.02;;;;;;;22.69;58.67;100704.19;7397210;19;20018;-67
2022/06/27 01:52:44;;;;;;;9.90;9.10;;;;;;;22.65;58.67;100697.38;7395701;19;20019;-67
2022/06/27 01:55:12;;;;;;;10.93;10.05;;;;;;;22.61;58.52;100700.25;7397841;19;20048;-67
2022/06/27 01:57:41;;;;;;;10.77;9.88;;;;;;;22.56;59.01;100696.22;7395221;19;20028;-67
2022/06/27 02:00:12;;;;;;;10.57;9.57;;;;;;;22.54;58.75;100704.31;7395442;19;20018;-67
2022/06/27 02:02:40;;;;;;;10.02;9.23;;;;;;;22.51;59.02;100707.25;7394837;19;20489;-67
2022/06/27 02:05:10;;;;;;;10.45;9.57;;;;;;;22.47;58.84;100713.78;7396953;19;20018;-67
2022/06/27 02:07:40;;;;;;;10.75;9.95;;;;;;;22.45;58.99;100705.84;7396024;19;20015;-67
2022/06/27 02:10:18;;;;;;;10.52;9.73;;;;;;;22.43;59.31;100706.91;7394950;19;20018;-67
2022/06/27 02:12:47;;;;;;;10.75;9.77;;;;;;;22.40;59.05;100712.50;7394656;19;20455;-67
2022/06/27 02:15:16;;;;;;;11.23;10.23;;;;;;;22.37;59.40;100715.38;7396625;19;20014;-67
2022/06/27 02:17:44;;;;;;;11.50;10.40;;;;;;;22.35;59.14;100714.63;7397161;19;20022;-67
2022/06/27 02:20:13;;;;;;;11.55;10.55;;;;;;;22.32;59.58;100721.03;7396972;19;20498;-68
2022/06/27 02:22:42;;;;;;;10.52;9.60;;;;;;;22.29;59.21;100714.09;7397155;19;20037;-67
2022/06/27 02:25:14;;;;;;;11.02;10.13;;;;;;;22.28;59.53;100724.91;7396000;19;20383;-67
2022/06/27 02:27:44;;;;;;;11.10;10.18;;;;;;;22.23;60.00;100725.22;7396361;19;20027;-67
2022/06/27 02:30:14;;;;;;;11.70;10.73;;;;;;;22.20;59.60;100729.94;7396467;19;20018;-67
2022/06/27 02:32:43;;;;;;;10.90;9.80;;;;;;;22.17;59.73;100728.34;7393727;19;20015;-67
2022/06/27 02:35:13;;;;;;;11.38;10.27;;;;;;;22.14;59.81;100731.25;7395174;19;20023;-67
2022/06/27 02:37:44;;;;;;;11.48;10.45;;;;;;;22.10;59.98;100730.59;7393208;19;20493;-67
2022/06/27 02:40:17;;;;;;;11.30;10.38;;;;;;;22.09;60.59;100742.25;7393881;19;20489;-67
2022/06/27 02:42:46;;;;;;;12.27;11.27;;;;;;;22.06;60.61;100738.94;7394658;19;20036;-68
2022/06/27 02:45:15;;;;;;;11.57;10.65;;;;;;;22.03;60.36;100737.31;7393954;19;20031;-67
2022/06/27 02:47:46;;;;;;;11.15;10.23;;;;;;;22.01;60.83;100736.56;7395343;19;20418;-67
2022/06/27 02:50:14;;;;;;;11.65;10.70;;;;;;;21.98;60.48;100731.44;7395997;19;20019;-67
2022/06/27 02:52:49;;;;;;;11.90;10.90;;;;;;;21.97;60.98;100737.75;7393625;19;20036;-67
2022/06/27 02:55:25;;;;;;;11.60;10.70;;;;;;;21.95;60.38;100739.66;7395795;19;20083;-67
2022/06/27 02:58:01;;;;;;;11.73;10.55;;;;;;;21.93;60.44;100731.75;7393313;19;20018;-67
2022/06/27 03:00:32;;;;;;;11.30;10.15;;;;;;;21.90;60.73;100734.66;7394955;19;20027;-67
2022/06/27 03:03:01;;;;;;;11.52;10.55;;;;;;;21.89;61.18;100730.28;7395016;19;20041;-67
2022/06/27 03:05:30;;;;;;;11.95;11.02;;;;;;;21.88;61.05;100731.25;7395177;19;20032;-67
2022/06/27 03:07:58;;;;;;;12.13;11.10;;;;;;;21.87;61.42;100748.22;7394960;19;20019;-67
2022/06/27 03:10:30;;;;;;;12.52;11.35;;;;;;;21.85;61.09;100747.50;7392642;19;20018;-67
2022/06/27 03:12:58;;;;;;;12.48;11.38;;;;;;;21.81;60.99;100745.97;7393332;19;20102;-67
2022/06/27 03:15:26;;;;;;;12.38;11.27;;;;;;;21.82;61.48;100747.69;7392855;19;20031;-67
2022/06/27 03:17:55;;;;;;;11.45;10.55;;;;;;;21.81;61.58;100751.31;7394053;19;20414;-67
2022/06/27 03:20:23;;;;;;;11.82;10.73;;;;;;;21.83;61.42;100748.56;7394080;19;20082;-67
2022/06/27 03:22:52;;;;;;;12.90;10.98;;;;;;;21.82;61.60;100752.19;7394356;19;20035;-67
2022/06/27 03:25:21;;;;;;;12.23;11.27;;;;;;;21.82;61.44;100747.69;7394270;19;20070;-67
2022/06/27 03:27:52;;;;;;;12.25;11.27;;;;;;;21.82;61.52;100750.34;7392068;19;20014;-67
2022/06/27 03:30:20;;;;;;;12.38;11.30;;;;;;;21.82;61.65;100749.50;7394163;19;20035;-67
2022/06/27 03:32:49;;;;;;;12.52;11.43;;;;;;;21.79;61.77;100751.41;7391647;19;20364;-67
2022/06/27 03:35:17;;;;;;;12.52;11.40;;;;;;;21.76;61.85;100756.09;7395198;19;20475;-67
2022/06/27 03:37:46;;;;;;;12.88;11.57;;;;;;;21.71;62.41;100755.56;7400537;19;20018;-67
2022/06/27 03:40:14;;;;;;;12.05;11.05;;;;;;;21.68;62.38;100751.31;7398255;19;20011;-67
2022/06/27 03:42:43;;;;;;;12.60;11.50;;;;;;;21.67;62.49;100746.06;7400725;19;20014;-67
2022/06/27 03:45:14;;;;;;;12.35;11.25;;;;;;;21.67;62.78;100744.25;7401674;19;20031;-67
2022/06/27 03:47:50;;;;;;;13.45;12.25;;;;;;;21.66;62.95;100747.03;7401022;19;20028;-67
2022/06/27 03:50:17;;;;;;;12.07;10.98;;;;;;;21.66;62.81;100747.91;7398207;19;20394;-66
2022/06/27 03:52:45;;;;;;;12.45;11.35;;;;;;;21.70;62.84;100748.53;7398825;19;20082;-66
2022/06/27 03:55:14;;;;;;;13.20;12.10;;;;;;;;;;7400819;19;20492;-66
2022/06/27 03:57:51;;;;;;;12.65;11.75;;;;;;;21.77;62.95;100749.81;7401562;19;20027;-67
2022/06/27 04:00:32;;;;;;;13.27;12.07;;;;;;;21.80;62.78;100741.63;7397581;19;20024;-66
2022/06/27 04:03:01;;;;;;;12.13;11.10;;;;;;;21.83;62.06;100733.38;7399942;19;20024;-66
2022/06/27 04:05:30;;;;;;;13.23;12.13;;;;;;;21.84;62.38;100723.53;7398642;19;20019;-67
2022/06/27 04:07:58;;;;;;;13.82;12.35;;;;;;;21.87;62.15;100726.00;7397529;19;20039;-66
2022/06/27 04:10:27;;;;;;;12.52;11.43;;;;;;;21.90;62.01;100731.13;7397813;19;20466;-67
2022/06/27 04:12:55;;;;;;;14.40;12.35;;;;;;;21.92;62.33;100732.72;7397381;19;20074;-67
2022/06/27 04:15:24;;;;;;;12.85;11.77;;;;;;;21.95;62.06;100732.53;7400801;19;20074;-67
2022/06/27 04:17:55;;;;;;;13.20;12.07;;;;;;;21.98;62.32;100726.13;7399457;19;20028;-66
2022/06/27 04:20:24;;;;;;;13.43;11.88;;;;;;;22.00;62.12;100724.16;7400321;19;20026;-67
2022/06/27 04:22:52;;;;;;;12.27;11.13;;;;;;;22.03;61.93;100723.13;7397410;19;20018;-68
2022/06/27 04:25:21;;;;;;;11.57;10.68;;;;;;;22.05;61.66;100723.84;7399622;19;20027;-67
2022/06/27 04:27:50;;;;;;;11.63;10.63;;;;;;;22.08;61.63;100718.31;7399884;19;20022;-67
2022/06/27 04:30:19;;;;;;;11.73;10.82;;;;;;;22.10;62.13;100716.38;7399542;19;20018;-68
2022/06/27 04:32:50;;;;;;;11.68;10.77;;;;;;;22.13;61.58;100722.34;7397001;19;20022;-67
2022/06/27 04:35:21;;;;;;;12.68;10.98;;;;;;;22.15;61.72;100716.06;7397707;19;20552;-68
2022/06/27 04:37:50;;;;;;;12.52;11.43;;;;;;;22.19;62.01;100714.84;7398775;19;20028;-68
2022/06/27 04:40:19;;;;;;;12.05;11.05;;;;;;;22.22;61.91;100717.34;7396458;19;20022;-67
2022/06/27 04:42:49;;;;;;;11.95;10.77;;;;;;;22.25;61.67;100717.94;7398658;19;20029;-68
2022/06/27 04:45:18;;;;;;;11.65;10.65;;;;;;;22.27;61.83;100716.03;7398875;19;20022;-68
2022/06/27 04:47:47;;;;;;;11.63;10.63;;;;;;;22.32;61.50;100712.16;7398751;19;20078;-67
2022/06/27 04:50:21;;;;;;;12.13;10.98;;;;;;;22.36;61.21;100708.31;7395348;19;20512;-67
2022/06/27 04:52:52;;;;;;;78.03;60.13;;;;;;;22.39;61.17;100709.00;7395698;19;20015;-67
2022/06/27 04:55:22;;;;;;;21.65;18.58;;;;;;;22.43;61.54;100712.28;7398926;19;20018;-68
2022/06/27 04:57:51;;;;;;;19.55;17.52;;;;;;;22.47;60.99;100705.75;7395160;19;20018;-67
2022/06/27 05:00:20;;;;;;;12.88;11.68;;;;;;;22.51;61.38;100709.91;7397666;19;20026;-67
2022/06/27 05:02:49;;;;;;;16.92;15.32;;;;;;;22.55;61.14;100703.38;7395905;19;20026;-67
2022/06/27 05:05:17;;;;;;;14.93;13.52;;;;;;;22.59;61.21;100704.84;7396354;19;20018;-68
2022/06/27 05:07:46;;;;;;;13.98;12.60;;;;;;;22.64;60.78;100709.03;7396088;19;20096;-68
2022/06/27 05:10:17;;;;;;;12.32;11.23;;;;;;;22.68;60.82;100710.50;7394328;19;20031;-68
2022/06/27 05:12:46;;;;;;;12.20;11.15;;;;;;;22.74;61.25;100713.56;7396381;19;20403;-68
2022/06/27 05:15:14;;;;;;;11.90;10.90;;;;;;;22.80;61.20;100706.91;7395831;19;20032;-67
2022/06/27 05:17:44;;;;;;;11.73;10.75;;;;;;;22.84;61.22;100703.03;7396412;19;20018;-68
2022/06/27 05:20:13;;;;;;;11.15;10.15;;;;;;;22.89;60.81;100706.22;7394245;19;20015;-67
2022/06/27 05:22:42;;;;;;;11.23;10.30;;;;;;;22.96;60.84;100711.13;7394834;19;20048;-67
2022/06/27 05:25:11;;;;;;;14.93;10.95;;;;;;;23.01;60.93;100706.28;7396677;19;20031;-67
2022/06/27 05:27:42;;;;;;;15.85;11.77;;;;;;;23.07;60.76;100704.00;7396490;19;20011;-69
2022/06/27 05:30:13;;;;;;;10.73;9.88;;;;;;;23.15;60.83;100715.94;7397659;19;20027;-69
2022/06/27 05:32:42;;;;;;;12.40;11.30;;;;;;;23.21;60.71;100715.50;7396729;19;20066;-68
2022/06/27 05:35:12;;;;;;;11.10;10.18;;;;;;;23.26;60.60;100710.66;7394545;19;20014;-69
2022/06/27 05:37:44;;;;;;;11.85;10.77;;;;;;;23.32;60.90;100712.88;7396091;19;20074;-69
2022/06/27 05:40:13;;;;;;;10.95;10.02;;;;;;;23.40;60.85;100709.59;7397075;19;20018;-68
2022/06/27 05:42:44;;;;;;;11.35;10.23;;;;;;;23.47;60.63;100715.34;7395385;19;20022;-69
2022/06/27 05:45:13;;;;;;;11.32;10.27;;;;;;;23.52;61.09;100716.72;7397302;19;20031;-69
2022/06/27 05:47:42;;;;;;;11.57;10.38;;;;;;;23.56;61.00;100709.28;7394652;19;20024;-68
2022/06/27 05:50:12;;;;;;;12.15;11.05;;;;;;;23.64;60.62;100711.38;7396605;19;20017;-68
2022/06/27 05:52:41;;;;;;;11.75;10.75;;;;;;;23.73;60.67;100724.91;7395570;19;20015;-68
2022/06/27 05:55:11;;;;;;;10.88;9.98;;;;;;;23.81;60.68;100712.72;7396527;19;20111;-68
2022/06/27 05:57:41;;;;;;;10.82;9.80;;;;;;;23.89;60.89;100715.66;7394350;19;20014;-68
2022/06/27 06:00:13;;;;;;;11.45;10.45;;;;;;;23.95;61.00;100715.22;7396143;19;20014;-69
2022/06/27 06:02:41;;;;;;;11.80;10.70;;;;;;;24.03;60.38;100714.59;7396274;19;20034;-69
2022/06/27 06:05:12;;;;;;;10.88;9.80;;;;;;;24.10;60.74;100718.50;7395759;19;20018;-68
2022/06/27 06:07:43;;;;;;;10.98;10.02;;;;;;;24.17;60.42;100718.88;7395716;19;20422;-68
2022/06/27 06:10:12;;;;;;;10.43;9.52;;;;;;;24.25;60.28;100719.09;7392676;19;20015;-69
2022/06/27 06:12:40;;;;;;;11.40;10.50;;;;;;;24.32;59.86;100717.63;7395265;19;20010;-70
2022/06/27 06:15:13;;;;;;;12.65;10.27;;;;;;;24.41;59.71;100716.03;7395619;19;20362;-70
2022/06/27 06:17:43;;;;;;;9.82;9.02;;;;;;;24.47;60.04;100715.56;7393276;19;20356;-71
2022/06/27 06:20:13;;;;;;;10.80;9.85;;;;;;;24.55;59.41;100713.09;7395564;19;20041;-70
2022/06/27 06:22:44;;;;;;;9.85;9.05;;;;;;;24.63;59.28;100711.59;7395083;19;20394;-71
2022/06/27 06:25:13;;;;;;;9.52;8.73;;;;;;;24.70;59.45;100711.00;7395575;19;20018;-71
2022/06/27 06:27:44;;;;;;;9.43;8.63;;;;;;;24.78;58.95;100710.41;7395651;19;20031;-70
2022/06/27 06:30:15;;;;;;;9.80;8.98;;;;;;;24.87;59.14;100706.06;7393969;19;20018;-71
2022/06/27 06:32:45;;;;;;;10.15;9.35;;;;;;;24.94;58.46;100712.66;7394130;19;20023;-71
2022/06/27 06:35:15;;;;;;;9.27;8.57;;;;;;;25.02;58.45;100707.50;7394469;19;20377;-69
2022/06/27 06:37:44;;;;;;;8.98;7.93;;;;;;;25.11;58.07;100710.38;7394450;19;20023;-70
2022/06/27 06:40:14;;;;;;;10.25;9.25;;;;;;;25.20;58.24;100699.72;7393616;19;20483;-70
2022/06/27 06:42:42;;;;;;;8.80;8.00;;;;;;;25.30;57.56;100697.13;7394623;19;20014;-69
2022/06/27 06:45:12;;;;;;;6.80;6.15;;;;;;;25.41;57.15;100703.44;7392988;19;20434;-69
2022/06/27 06:47:52;;;;;;;6.93;6.22;;;;;;;25.50;56.03;100692.78;7393775;19;20036;-69
2022/06/27 06:50:21;;;;;;;6.45;5.88;;;;;;;25.61;56.05;100694.50;7395075;19;20488;-69
2022/06/27 06:52:51;;;;;;;7.07;6.50;;;;;;;25.74;55.38;100698.81;7393182;19;20081;-70
2022/06/27 06:55:22;;;;;;;6.97;6.25;;;;;;;25.84;54.77;100694.34;7394570;19;20027;-69
2022/06/27 06:57:51;;;;;;;7.60;6.07;;;;;;;25.95;54.08;100690.72;7393022;19;20019;-70
2022/06/27 07:00:22;;;;;;;6.53;5.93;;;;;;;26.05;53.66;100690.78;7394621;19;20081;-70
2022/06/27 07:02:53;;;;;;;6.10;5.50;;;;;;;26.14;53.60;100685.44;7392709;19;20018;-70
2022/06/27 07:05:21;;;;;;;7.22;5.47;;;;;;;26.26;52.68;100688.91;7393236;19;20082;-70
2022/06/27 07:07:52;;;;;;;6.03;5.45;;;;;;;26.38;52.53;100689.63;7394431;19;20022;-70
2022/06/27 07:10:22;;;;;;;5.60;5.10;;;;;;;26.48;51.88;100677.03;7396288;19;20485;-70
2022/06/27 07:12:51;;;;;;;5.95;5.32;;;;;;;26.60;51.50;100685.00;7401815;19;20014;-69
2022/06/27 07:15:21;;;;;;;5.97;5.38;;;;;;;26.71;50.93;100681.34;7399378;19;20014;-69
2022/06/27 07:17:54;;;;;;;5.80;5.22;;;;;;;26.82;51.03;100687.44;7398738;19;20019;-69
2022/06/27 07:20:24;;;;;;;5.60;5.10;;;;;;;26.94;50.96;100684.63;7402340;19;20089;-69
2022/06/27 07:22:53;;;;;;;5.82;5.30;;;;;;;27.06;50.91;100680.81;7399312;19;20022;-69
2022/06/27 07:25:22;;;;;;;5.72;5.25;;;;;;;27.21;50.37;100678.53;7402192;19;20035;-69
2022/06/27 07:27:51;;;;;;;5.22;4.78;;;;;;;27.34;50.20;100677.38;7401542;19;20418;-70
2022/06/27 07:30:20;;;;;;;5.28;4.88;;;;;;;27.50;49.65;100677.66;7401857;19;20019;-70
2022/06/27 07:32:48;;;;;;;5.15;4.65;;;;;;;27.62;49.14;100678.31;7400604;19;20036;-70
2022/06/27 07:35:20;;;;;;;4.82;4.53;;;;;;;27.80;48.91;100671.19;7401283;19;20153;-70
2022/06/27 07:37:52;;;;;;;5.28;4.85;;;;;;;27.98;48.29;100669.53;7402066;19;20031;-70
2022/06/27 07:40:22;;;;;;;5.63;5.00;;;;;;;28.16;48.14;100670.47;7403520;19;20026;-69
2022/06/27 07:42:52;;;;;;;5.82;5.32;;;;;;;28.34;47.18;100665.09;7398271;19;20022;-69
2022/06/27 07:45:21;;;;;;;5.45;4.95;;;;;;;28.50;47.25;100663.59;7400690;19;20027;-70
2022/06/27 07:47:50;;;;;;;7.00;4.80;;;;;;;28.64;46.92;100662.19;7397921;19;20031;-67
2022/06/27 07:53:15;;;;;;;6.75;5.38;;;;;;;28.85;46.40;100670.91;7402475;19;20025;-67
2022/06/27 07:55:47;;;;;;;5.30;4.90;;;;;;;28.92;46.20;100657.63;7402379;19;20021;-65
2022/06/27 07:58:19;;;;;;;6.22;5.63;;;;;;;28.98;46.06;100657.00;7398086;19;20505;-67
2022/06/27 08:00:51;;;;;;;6.15;5.55;;;;;;;29.04;45.90;100653.69;7402275;19;20349;-66
2022/06/27 08:06:08;;;;;;;5.63;5.13;;;;;;;29.14;46.08;100655.44;7400594;19;20026;-70
2022/06/27 08:08:37;;;;;;;5.38;4.97;;;;;;;29.18;45.95;100640.59;7398099;19;20014;-67
2022/06/27 08:11:14;;;;;;;4.85;4.45;;;;;;;29.22;45.27;100645.53;7397222;19;20040;-67
2022/06/27 08:13:45;;;;;;;5.32;4.10;;;;;;;29.27;44.65;100647.78;7399309;19;20035;-67
2022/06/27 08:16:15;;;;;;;4.32;3.78;;;;;;;29.33;44.40;100651.72;7400018;19;20082;-67
2022/06/27 08:18:44;;;;;;;4.55;3.53;;;;;;;29.38;43.66;100657.47;7400595;19;20048;-67
2022/06/27 08:21:17;;;;;;;4.38;4.07;;;;;;;29.42;42.92;100654.31;7398493;19;20022;-67
2022/06/27 08:23:53;;;;;;;4.13;3.83;;;;;;;29.50;42.76;100652.69;7397795;19;20044;-72
2022/06/27 08:26:23;;;;;;;5.28;3.78;;;;;;;29.55;43.11;100656.59;7399931;19;20018;-70
2022/06/27 08:28:52;;;;;;;3.97;3.53;;;;;;;29.60;42.65;100648.00;7399225;19;20014;-70
2022/06/27 08:31:22;;;;;;;3.60;3.30;;;;;;;29.64;42.09;100645.81;7399270;19;20036;-71
2022/06/27 08:33:55;;;;;;;3.42;3.03;;;;;;;29.67;42.07;100646.31;7397779;19;20052;-72
2022/06/27 08:36:27;;;;;;;4.18;3.22;;;;;;;29.71;41.56;100645.03;7399135;19;20070;-71
2022/06/27 08:38:56;;;;;;;3.80;3.10;;;;;;;29.76;42.11;100640.97;7399649;19;20029;-74
2022/06/27 08:41:25;;;;;;;3.75;3.45;;;;;;;29.83;41.90;100642.03;7400541;19;20031;-74
2022/06/27 08:43:59;;;;;;;3.53;3.22;;;;;;;29.91;41.63;100644.78;7397668;19;20014;-71
2022/06/27 08:46:28;;;;;;;3.80;3.50;;;;;;;29.96;41.13;100645.16;7396449;19;20010;-72
2022/06/27 08:48:57;;;;;;;3.72;3.42;;;;;;;30.02;41.15;100649.06;7398791;19;20018;-72
2022/06/27 08:51:29;;;;;;;3.40;2.90;;;;;;;30.08;40.44;100648.41;7398951;19;20018;-72
2022/06/27 08:53:58;;;;;;;2.78;2.58;;;;;;;30.16;39.67;100653.00;7397699;19;20019;-72
2022/06/27 08:56:29;;;;;;;4.35;3.30;;;;;;;30.19;39.24;100647.25;7397364;19;20018;-72
2022/06/27 08:58:59;;;;;;;5.20;2.72;;;;;;;30.25;38.72;100653.88;7399270;19;20010;-72
2022/06/27 09:01:29;;;;;;;4.25;2.95;;;;;;;30.29;38.09;100653.38;7398074;19;20014;-72
2022/06/27 09:04:03;;;;;;;2.35;2.15;;;;;;;30.33;37.33;100646.63;7397384;19;20029;-72
2022/06/27 09:06:35;;;;;;;;;;;;;;;30.37;36.78;100647.16;7399360;19;20015;-73
2022/06/27 09:09:07;;;;;;;2.42;2.22;;;;;;;30.41;37.43;100636.81;7395468;19;20346;-72
2022/06/27 09:11:37;;;;;;;2.42;2.22;;;;;;;30.42;37.26;100639.38;7396263;19;20018;-72
2022/06/27 09:14:08;;;;;;;2.67;2.47;;;;;;;30.46;36.78;100638.03;7395939;19;20021;-73
2022/06/27 09:16:36;;;;;;;3.75;2.40;;;;;;;30.52;36.61;100629.28;7394963;19;20541;-72
2022/06/27 09:19:05;;;;;;;3.10;2.47;;;;;;;30.58;35.85;100635.88;7395695;19;20074;-71
2022/06/27 09:21:36;;;;;;;3.78;2.10;;;;;;;30.62;35.15;100634.53;7394823;19;20086;-71
2022/06/27 09:24:05;;;;;;;2.53;2.00;;;;;;;30.68;35.22;100635.72;7395782;19;20086;-70
2022/06/27 09:26:35;;;;;;;2.42;2.22;;;;;;;30.71;35.50;100628.09;7397969;19;20031;-70
2022/06/27 09:29:07;;;;;;;3.25;2.17;;;;;;;30.77;35.66;100631.16;7397522;19;20020;-71
2022/06/27 09:31:39;;;;;;;3.53;2.30;;;;;;;30.84;36.01;100641.13;7399126;19;20031;-71
2022/06/27 09:34:15;;;;;;;4.18;2.60;;;;;;;30.93;35.78;100627.59;7393084;19;20063;-69
2022/06/27 09:36:50;;;;;;;4.25;2.83;;;;;;;30.99;35.09;100630.47;7395119;19;20015;-70
2022/06/27 09:39:25;;;;;;;2.83;2.30;;;;;;;31.07;34.97;100632.34;7394721;19;20018;-70
2022/06/27 09:41:59;;;;;;;3.15;1.98;;;;;;;31.14;34.40;100630.66;7397420;19;20015;-70
2022/06/27 09:44:31;;;;;;;2.78;2.00;;;;;;;31.23;33.93;100630.63;7394174;19;20491;-70
2022/06/27 09:47:12;;;;;;;2.60;1.80;;;;;;;31.33;33.11;100626.72;7396722;19;20082;-70
2022/06/27 09:49:43;;;;;;;1.88;1.70;;;;;;;31.41;33.70;100627.75;7396253;19;20036;-71
2022/06/27 09:52:16;;;;;;;2.92;1.80;;;;;;;31.49;32.87;100625.84;7396100;19;20017;-71
2022/06/27 09:54:45;;;;;;;;;;;;;;;31.56;33.03;100620.56;7394874;19;20036;-70
2022/06/27 09:57:15;;;;;;;3.70;2.28;;;;;;;31.62;33.42;100611.75;7396580;19;19919;-71
2022/06/27 09:59:45;;;;;;;3.50;1.80;;;;;;;31.69;32.66;100625.47;7394405;19;20424;-71
2022/06/27 10:02:16;;;;;;;2.97;2.60;;;;;;;31.73;32.67;100612.41;7396240;19;20019;-71
2022/06/27 10:04:45;;;;;;;3.63;2.63;;;;;;;31.77;33.00;100620.03;7394315;19;20022;-71
2022/06/27 10:07:19;;;;;;;2.17;2.08;;;;;;;31.82;32.58;100619.47;7395746;19;20018;-71
2022/06/27 10:09:53;;;;;;;2.63;2.10;;;;;;;31.89;32.67;100617.75;7394274;19;20086;-70
2022/06/27 10:12:23;;;;;;;5.72;2.58;;;;;;;31.97;33.02;100614.16;7394195;19;20027;-71
2022/06/27 10:15:22;;;;;;;2.30;2.10;;;;;;;32.05;32.07;100618.69;7393968;19;20074;-71
2022/06/27 10:17:59;;;;;;;2.83;2.15;;;;;;;32.11;32.20;100626.13;7395314;19;20011;-71
2022/06/27 10:20:36;;;;;;;2.85;1.75;;;;;;;32.15;31.52;100622.03;7394959;19;20018;-71
2022/06/27 10:23:29;;;;;;;4.00;1.77;;;;;;;32.21;31.94;100607.78;7394222;19;20023;-72
2022/06/27 10:25:58;;;;;;;2.38;2.08;;;;;;;32.24;32.29;100615.56;7394380;19;20363;-72
2022/06/27 10:28:27;;;;;;;2.90;2.20;;;;;;;32.29;32.11;100613.16;7395542;19;20011;-71
2022/06/27 10:30:57;;;;;;;2.63;2.30;;;;;;;32.31;32.08;100610.28;7394465;19;20014;-71
2022/06/27 10:33:39;;;;;;;3.28;2.97;;;;;;;32.36;31.84;100610.56;7391885;19;20018;-71
2022/06/27 10:36:16;;;;;;;2.45;2.25;;;;;;;32.43;32.23;100603.41;7394236;19;20035;-71
2022/06/27 10:38:59;;;;;;;3.53;2.47;;;;;;;32.51;32.05;100591.63;7393252;19;20015;-71
2022/06/27 10:41:42;;;;;;;2.88;2.35;;;;;;;32.60;31.45;100590.53;7394037;19;20019;-70
2022/06/27 10:44:35;;;;;;;2.25;1.90;;;;;;;32.72;30.83;100584.66;7393112;19;20034;-72
2022/06/27 10:47:04;;;;;;;2.00;1.85;;;;;;;32.87;31.20;100585.59;7393712;19;20035;-71
2022/06/27 10:49:34;;;;;;;6.95;2.20;;;;;;;32.98;30.85;100581.56;7394688;19;20027;-71
2022/06/27 10:52:35;;;;;;;2.42;2.00;;;;;;;33.09;30.36;100575.69;7394782;19;20022;-71
2022/06/27 10:55:23;;;;;;;2.83;2.03;;;;;;;33.20;29.37;100568.97;7393250;19;20033;-71
2022/06/27 10:57:52;;;;;;;3.88;2.30;;;;;;;33.25;30.60;100574.69;7392969;19;20010;-70
2022/06/27 11:00:42;;;;;;;3.00;2.20;;;;;;;33.33;29.59;100578.34;7394023;19;20521;-71
2022/06/27 11:03:12;;;;;;;4.57;2.40;;;;;;;33.45;30.35;100572.28;7393903;19;20018;-71
2022/06/27 11:05:56;;;;;;;3.10;2.20;;;;;;;33.59;29.26;100567.00;7392676;19;20026;-70
2022/06/27 11:08:25;;;;;;;3.92;2.35;;;;;;;33.67;29.33;100571.47;7392759;19;20427;-70
2022/06/27 11:10:57;;;;;;;3.90;2.60;;;;;;;33.71;29.18;100565.47;7392571;19;20027;-70
2022/06/27 11:13:43;;;;;;;2.38;2.15;;;;;;;33.78;28.79;100565.56;7391443;19;20035;-70
2022/06/27 11:16:15;;;;;;;2.97;2.35;;;;;;;33.87;29.60;100564.47;7393172;19;20014;-71
2022/06/27 11:18:46;;;;;;;2.45;1.88;;;;;;;33.96;28.73;100556.16;7393132;19;20556;-71
2022/06/27 11:21:18;;;;;;;2.60;2.20;;;;;;;34.01;28.85;100568.16;7393399;19;20493;-72
2022/06/27 11:23:55;;;;;;;6.57;3.08;;;;;;;34.08;28.33;100570.97;7391706;19;20086;-70
2022/06/27 11:26:28;;;;;;;2.60;2.40;;;;;;;34.18;28.37;100560.59;7393168;19;20021;-71
2022/06/27 11:34:21;;;;;;;3.80;2.30;;;;;;;34.53;27.97;100558.03;7390423;19;20018;-71
2022/06/27 11:36:50;;;;;;;3.85;2.08;;;;;;;34.69;27.79;100566.94;7393424;19;20034;-71
2022/06/27 11:39:24;;;;;;;3.10;2.47;;;;;;;34.83;26.65;100562.44;7393535;19;20034;-72
2022/06/27 11:42:00;;;;;;;4.45;2.10;;;;;;;34.98;26.72;100570.56;7394140;19;20011;-71
2022/06/27 11:44:29;;;;;;;3.95;2.08;;;;;;;35.12;26.80;100566.91;7391470;19;20403;-72
2022/06/27 11:47:05;;;;;;;3.67;2.10;;;;;;;35.24;26.10;100564.44;7392714;19;20024;-71